< < Back
Terminal Aerodrome Forecast


Current Version              Previous Versions:   1  2  3  4  5  6  7  8  9  

Terminal Aerodrome Forecast

857
FTUS44 KBMX 312320
TAFBHM
TAF
KBHM 312320Z 0100/0124 00000KT P6SM SCT250
     FM010800 00000KT 6SM BR SKC
     FM011500 01005KT P6SM SCT250=

Latest METAR

960
SAUS70 KWBC 011200 RRU
MTRBHM
METAR KBHM 011153Z 00000KT 10SM FEW030 FEW200 21/20 A3015 RMK AO2 SLP202
T02060200 10217 20206 53013


USA.gov is the U.S. government's official web portal to all federal, state and local government web resources and services.